createdAt,value
2023-03-10T00:01:22.483Z,9.38
2023-03-10T00:03:49.608Z,9.88
2023-03-10T00:06:19.752Z,10.30
2023-03-10T00:08:46.392Z,9.30
2023-03-10T00:11:13.289Z,10.13
2023-03-10T00:13:39.624Z,9.40
2023-03-10T00:16:07.003Z,9.25
2023-03-10T00:18:33.422Z,8.45
2023-03-10T00:20:59.820Z,8.40
2023-03-10T00:23:26.490Z,9.43
2023-03-10T00:26:00.513Z,11.20
2023-03-10T00:28:28.198Z,9.07
2023-03-10T00:31:04.947Z,8.57
2023-03-10T00:36:01.728Z,8.98
2023-03-10T00:38:28.074Z,8.10
2023-03-10T00:41:02.585Z,7.70
2023-03-10T00:43:29.576Z,9.63
2023-03-10T00:45:57.173Z,7.15
2023-03-10T00:48:23.894Z,7.40
2023-03-10T00:50:50.617Z,7.70
2023-03-10T00:53:17.512Z,9.00
2023-03-10T00:55:43.886Z,7.43
2023-03-10T00:58:12.682Z,10.52
2023-03-10T01:00:39.003Z,7.57
2023-03-10T01:03:05.378Z,8.65
2023-03-10T01:05:32.511Z,9.88
2023-03-10T01:07:58.975Z,9.68
2023-03-10T01:10:25.398Z,6.80
2023-03-10T01:12:51.693Z,9.45
2023-03-10T01:15:22.267Z,8.70
2023-03-10T01:17:48.627Z,7.75
2023-03-10T01:20:19.713Z,7.88
2023-03-10T01:22:48.560Z,7.95
2023-03-10T01:25:19.805Z,9.38
2023-03-10T01:27:46.124Z,7.72
2023-03-10T01:30:16.064Z,9.05
2023-03-10T01:32:42.532Z,8.60
2023-03-10T01:35:13.894Z,8.02
2023-03-10T01:37:44.697Z,9.90
2023-03-10T01:40:15.116Z,10.23
2023-03-10T01:42:42.038Z,9.57
2023-03-10T01:45:28.471Z,9.30
2023-03-10T01:47:54.977Z,9.88
2023-03-10T01:50:24.607Z,8.52
2023-03-10T01:52:53.136Z,8.02
2023-03-10T01:55:23.737Z,10.27
2023-03-10T01:57:53.071Z,9.75
2023-03-10T02:00:21.195Z,9.27
2023-03-10T02:03:00.972Z,9.27
2023-03-10T02:05:29.212Z,9.88
2023-03-10T02:08:04.495Z,9.40
2023-03-10T02:10:31.497Z,8.68
2023-03-10T02:12:59.285Z,8.60
2023-03-10T02:15:25.901Z,8.30
2023-03-10T02:17:53.298Z,9.65
2023-03-10T02:21:01.824Z,9.82
2023-03-10T02:23:45.024Z,8.27
2023-03-10T02:26:19.974Z,8.38
2023-03-10T02:28:50.598Z,9.48
2023-03-10T02:31:22.962Z,7.60
2023-03-10T02:33:56.185Z,9.75
2023-03-10T02:36:24.185Z,9.23
2023-03-10T02:38:50.949Z,8.07
2023-03-10T02:41:37.561Z,9.05
2023-03-10T02:44:20.182Z,9.88
2023-03-10T02:46:46.574Z,9.45
2023-03-10T02:49:13.280Z,10.00
2023-03-10T02:51:44.936Z,8.50
2023-03-10T02:54:12.751Z,8.90
2023-03-10T02:56:39.588Z,8.93
2023-03-10T02:59:08.135Z,9.30
2023-03-10T03:01:39.740Z,10.70
2023-03-10T03:04:07.942Z,9.80
2023-03-10T03:06:34.612Z,9.07
2023-03-10T03:09:01.009Z,7.53
2023-03-10T03:11:27.479Z,7.57
2023-03-10T03:13:56.323Z,8.20
2023-03-10T03:16:25.199Z,7.72
2023-03-10T03:18:51.689Z,11.52
2023-03-10T03:21:18.562Z,7.22
2023-03-10T03:23:51.187Z,8.85
2023-03-10T03:26:21.049Z,9.05
2023-03-10T03:28:47.641Z,8.25
2023-03-10T03:31:16.087Z,7.55
2023-03-10T03:33:42.582Z,8.90
2023-03-10T03:36:12.747Z,8.23
2023-03-10T03:38:39.588Z,7.75
2023-03-10T03:41:06.939Z,8.75
2023-03-10T03:43:36.743Z,7.78
2023-03-10T03:46:03.228Z,6.68
2023-03-10T03:48:29.656Z,8.82
2023-03-10T03:50:56.010Z,7.78
2023-03-10T03:53:22.314Z,7.28
2023-03-10T03:55:50.507Z,7.88
2023-03-10T03:58:21.707Z,8.45
2023-03-10T04:00:55.399Z,8.25
2023-03-10T04:03:21.826Z,7.97
2023-03-10T04:05:49.279Z,8.55
2023-03-10T04:08:18.119Z,5.95
2023-03-10T04:10:50.675Z,8.60
2023-03-10T04:13:19.476Z,9.20
2023-03-10T04:15:45.881Z,7.45
2023-03-10T04:18:14.639Z,7.90
2023-03-10T04:20:40.956Z,7.97
2023-03-10T04:23:07.462Z,7.88
2023-03-10T04:25:35.905Z,6.85
2023-03-10T04:28:02.290Z,7.35
2023-03-10T04:30:31.302Z,7.70
2023-03-10T04:33:04.794Z,7.40
2023-03-10T04:35:31.164Z,7.70
2023-03-10T04:37:57.505Z,6.63
2023-03-10T04:40:26.275Z,7.78
2023-03-10T04:42:52.632Z,7.95
2023-03-10T04:45:20.140Z,7.10
2023-03-10T04:47:46.521Z,8.10
2023-03-10T04:50:15.469Z,7.30
2023-03-10T04:52:42.180Z,7.18
2023-03-10T04:55:09.200Z,7.15
2023-03-10T04:57:35.605Z,8.18
2023-03-10T05:00:12.878Z,6.07
2023-03-10T05:02:40.061Z,7.70
2023-03-10T05:05:06.770Z,6.97
2023-03-10T05:07:33.190Z,7.55
2023-03-10T05:09:59.516Z,7.03
2023-03-10T05:12:28.242Z,7.97
2023-03-10T05:14:55.036Z,7.75
2023-03-10T05:17:21.855Z,8.55
2023-03-10T05:19:48.482Z,7.45
2023-03-10T05:22:14.860Z,7.80
2023-03-10T05:24:41.306Z,10.65
2023-03-10T05:27:07.608Z,9.32
2023-03-10T05:29:33.939Z,9.18
2023-03-10T05:32:00.254Z,7.72
2023-03-10T05:34:36.425Z,8.40
2023-03-10T05:37:04.046Z,7.72
2023-03-10T05:39:30.622Z,10.50
2023-03-10T05:41:56.958Z,7.63
2023-03-10T05:44:23.321Z,9.13
2023-03-10T05:46:49.781Z,9.13
2023-03-10T05:49:16.131Z,9.93
2023-03-10T05:51:42.456Z,9.07
2023-03-10T05:54:11.321Z,9.00
2023-03-10T05:56:37.829Z,9.63
2023-03-10T05:59:04.217Z,9.38
2023-03-10T06:01:30.693Z,9.35
2023-03-10T06:03:59.654Z,10.63
2023-03-10T06:06:31.497Z,10.45
2023-03-10T06:09:05.266Z,8.38
2023-03-10T06:11:34.284Z,11.90
2023-03-10T06:14:05.060Z,8.05
2023-03-10T06:16:31.498Z,8.13
2023-03-10T06:19:05.178Z,9.85
2023-03-10T06:21:31.516Z,10.40
2023-03-10T06:23:57.887Z,8.50
2023-03-10T06:26:24.456Z,9.07
2023-03-10T06:28:52.215Z,9.05
2023-03-10T06:31:23.450Z,9.38
2023-03-10T06:33:51.581Z,8.00
2023-03-10T06:36:23.368Z,10.13
2023-03-10T06:38:50.117Z,9.85
2023-03-10T06:41:16.929Z,8.88
2023-03-10T06:43:46.530Z,8.73
2023-03-10T06:46:14.114Z,5.72
2023-03-10T06:48:45.664Z,7.07
2023-03-10T06:51:18.340Z,7.80
2023-03-10T06:53:44.807Z,7.65
2023-03-10T06:56:18.181Z,7.93
2023-03-10T06:58:45.337Z,8.18
2023-03-10T07:01:29.672Z,6.82
2023-03-10T07:03:57.727Z,6.78
2023-03-10T07:06:24.878Z,6.82
2023-03-10T07:08:52.057Z,7.28
2023-03-10T07:11:18.763Z,6.32
2023-03-10T07:13:45.380Z,7.95
2023-03-10T07:16:11.909Z,7.40
2023-03-10T07:18:38.328Z,6.47
2023-03-10T07:21:12.729Z,6.93
2023-03-10T07:23:41.864Z,6.82
2023-03-10T07:26:10.964Z,8.25
2023-03-10T07:28:40.311Z,7.15
2023-03-10T07:31:12.007Z,6.88
2023-03-10T07:33:40.950Z,8.02
2023-03-10T07:36:18.948Z,6.53
2023-03-10T07:38:49.495Z,7.97
2023-03-10T07:41:19.677Z,6.47
2023-03-10T07:43:46.207Z,6.50
2023-03-10T07:46:14.718Z,8.32
2023-03-10T07:48:46.086Z,6.00
2023-03-10T07:51:14.686Z,6.32
2023-03-10T07:53:42.265Z,6.80
2023-03-10T07:56:12.751Z,7.00
2023-03-10T07:58:42.601Z,8.02
2023-03-10T08:01:15.664Z,6.88
2023-03-10T08:03:42.259Z,6.63
2023-03-10T08:06:08.635Z,6.35
2023-03-10T08:08:35.591Z,7.57
2023-03-10T08:11:06.344Z,5.90
2023-03-10T08:13:33.137Z,8.57
2023-03-10T08:16:04.327Z,6.07
2023-03-10T08:18:34.257Z,7.63
2023-03-10T08:21:04.204Z,4.72
2023-03-10T08:23:34.348Z,5.70
2023-03-10T08:26:02.706Z,7.18
2023-03-10T08:28:31.960Z,6.18
2023-03-10T08:31:04.928Z,6.57
2023-03-10T08:33:34.155Z,5.85
2023-03-10T08:36:10.814Z,9.75
2023-03-10T08:41:23.865Z,5.72
2023-03-10T08:43:58.687Z,6.13
2023-03-10T08:46:26.919Z,6.50
2023-03-10T08:48:56.133Z,6.18
2023-03-10T08:51:23.253Z,6.47
2023-03-10T08:53:51.757Z,5.80
2023-03-10T08:56:21.911Z,5.07
2023-03-10T08:58:48.323Z,5.60
2023-03-10T09:01:17.575Z,5.38
2023-03-10T09:03:45.360Z,4.82
2023-03-10T09:06:12.337Z,6.40
2023-03-10T09:08:44.605Z,5.57
2023-03-10T09:11:16.494Z,5.18
2023-03-10T09:13:42.877Z,6.40
2023-03-10T09:16:11.121Z,6.53
2023-03-10T09:18:37.918Z,6.22
2023-03-10T09:21:07.774Z,7.32
2023-03-10T09:23:34.354Z,7.68
2023-03-10T09:26:02.322Z,6.18
2023-03-10T09:28:29.439Z,6.57
2023-03-10T09:30:55.846Z,5.07
2023-03-10T09:33:22.785Z,6.93
2023-03-10T09:36:05.305Z,7.20
2023-03-10T09:38:32.567Z,4.47
2023-03-10T09:41:26.269Z,5.18
2023-03-10T09:44:02.194Z,4.78
2023-03-10T09:47:06.709Z,5.45
2023-03-10T09:49:55.993Z,5.13
2023-03-10T09:52:52.441Z,5.35
2023-03-10T09:55:22.170Z,4.55
2023-03-10T09:57:52.210Z,4.15
2023-03-10T10:00:26.754Z,4.25
2023-03-10T10:03:03.700Z,4.15
2023-03-10T10:05:39.648Z,4.32
2023-03-10T10:08:22.738Z,4.60
2023-03-10T10:10:55.914Z,4.38
2023-03-10T10:13:28.644Z,3.75
2023-03-10T10:16:34.869Z,4.13
2023-03-10T10:19:17.419Z,6.20
2023-03-10T10:21:50.705Z,3.63
2023-03-10T10:24:23.425Z,4.43
2023-03-10T10:26:52.836Z,4.13
2023-03-10T10:29:22.883Z,3.50
2023-03-10T10:32:10.630Z,4.75
2023-03-10T10:34:42.445Z,3.83
2023-03-10T10:37:27.531Z,3.58
2023-03-10T10:39:56.499Z,4.07
2023-03-10T10:42:27.621Z,3.25
2023-03-10T10:45:00.670Z,4.10
2023-03-10T10:47:35.931Z,3.88
2023-03-10T10:50:17.992Z,3.88
2023-03-10T10:52:48.264Z,3.05
2023-03-10T10:55:34.574Z,4.40
2023-03-10T10:58:24.854Z,3.42
2023-03-10T11:00:57.045Z,3.72
2023-03-10T11:03:53.535Z,4.13
2023-03-10T11:06:26.298Z,4.78
2023-03-10T11:09:07.882Z,4.32
2023-03-10T11:11:54.969Z,4.70
2023-03-10T11:14:27.438Z,4.50
2023-03-10T11:17:09.049Z,5.20
2023-03-10T11:19:50.646Z,5.47
2023-03-10T11:22:44.692Z,5.50
2023-03-10T11:25:21.026Z,4.35
2023-03-10T11:27:58.098Z,5.43
2023-03-10T11:30:55.152Z,4.88
2023-03-10T11:33:53.792Z,4.55
2023-03-10T11:36:49.644Z,6.35
2023-03-10T11:39:25.486Z,5.45
2023-03-10T11:42:01.556Z,4.10
2023-03-10T11:44:50.414Z,5.05
2023-03-10T11:47:54.153Z,5.22
2023-03-10T11:50:26.308Z,5.03
2023-03-10T11:53:05.381Z,5.75
2023-03-10T11:55:32.088Z,4.40
2023-03-10T11:58:04.271Z,4.55
2023-03-10T12:00:42.651Z,5.28
2023-03-10T12:03:21.825Z,3.35
2023-03-10T12:06:20.290Z,4.03
2023-03-10T12:08:50.966Z,3.33
2023-03-10T12:11:21.873Z,3.40
2023-03-10T12:13:52.172Z,3.47
2023-03-10T12:16:27.325Z,4.00
2023-03-10T12:18:55.874Z,4.47
2023-03-10T12:21:30.083Z,3.97
2023-03-10T12:23:59.691Z,3.90
2023-03-10T12:26:58.015Z,2.97
2023-03-10T12:29:40.758Z,3.45
2023-03-10T12:33:02.221Z,3.40
2023-03-10T12:35:28.543Z,4.13
2023-03-10T12:38:27.467Z,4.18
2023-03-10T12:40:53.863Z,3.28
2023-03-10T12:43:50.607Z,3.53
2023-03-10T12:46:42.024Z,2.70
2023-03-10T12:49:27.015Z,2.58
2023-03-10T12:52:09.510Z,2.95
2023-03-10T12:54:49.370Z,2.50
2023-03-10T13:00:27.733Z,3.90
2023-03-10T13:03:26.263Z,3.58
2023-03-10T13:06:10.585Z,4.03
2023-03-10T13:08:48.007Z,3.65
2023-03-10T13:11:39.242Z,3.58
2023-03-10T13:14:23.444Z,3.58
2023-03-10T13:17:00.988Z,2.95
2023-03-10T13:19:30.263Z,4.88
2023-03-10T13:21:57.371Z,3.40
2023-03-10T13:24:23.713Z,4.57
2023-03-10T13:27:07.329Z,4.82
2023-03-10T13:29:34.559Z,5.07
2023-03-10T13:32:01.035Z,7.40
2023-03-10T13:34:32.282Z,6.05
2023-03-10T13:37:05.856Z,5.93
2023-03-10T13:39:32.365Z,6.28
2023-03-10T13:42:02.729Z,7.82
2023-03-10T13:44:37.198Z,6.60
2023-03-10T13:47:12.598Z,7.32
2023-03-10T13:49:39.033Z,7.93
2023-03-10T13:52:12.973Z,7.20
2023-03-10T13:54:41.964Z,8.60
2023-03-10T13:57:18.512Z,7.18
2023-03-10T13:59:45.998Z,9.27
2023-03-10T14:02:21.766Z,7.57
2023-03-10T14:04:51.799Z,6.43
2023-03-10T14:07:38.395Z,7.57
2023-03-10T14:10:05.819Z,6.40
2023-03-10T14:12:50.357Z,6.78
2023-03-10T14:15:24.093Z,9.50
2023-03-10T14:18:08.668Z,9.82
2023-03-10T14:20:40.380Z,8.27
2023-03-10T14:23:38.646Z,6.10
2023-03-10T14:26:13.641Z,8.07
2023-03-10T14:28:42.453Z,8.77
2023-03-10T14:31:21.704Z,10.07
2023-03-10T14:33:48.164Z,10.15
2023-03-10T14:36:18.324Z,10.80
2023-03-10T14:38:44.870Z,8.18
2023-03-10T14:41:13.522Z,12.25
2023-03-10T14:43:41.782Z,7.93
2023-03-10T14:46:15.722Z,9.93
2023-03-10T14:48:42.545Z,11.23
2023-03-10T14:51:35.026Z,13.73
2023-03-10T14:54:01.928Z,11.70
2023-03-10T14:56:28.413Z,8.52
2023-03-10T14:58:55.259Z,6.75
2023-03-10T15:01:22.148Z,6.30
2023-03-10T15:03:50.983Z,5.53
2023-03-10T15:06:19.529Z,3.92
2023-03-10T15:08:47.027Z,3.58
2023-03-10T15:11:15.911Z,5.60
2023-03-10T15:13:46.694Z,5.72
2023-03-10T15:16:14.759Z,7.25
2023-03-10T15:18:41.345Z,5.35
2023-03-10T15:21:09.882Z,4.70
2023-03-10T15:23:36.210Z,5.00
2023-03-10T15:26:03.768Z,5.70
2023-03-10T15:28:37.328Z,6.82
2023-03-10T15:31:06.891Z,6.68
2023-03-10T15:33:33.468Z,8.05
2023-03-10T15:36:10.793Z,6.22
2023-03-10T15:38:38.867Z,8.65
2023-03-10T15:41:05.425Z,7.45
2023-03-10T15:43:31.750Z,6.85
2023-03-10T15:46:00.385Z,9.52
2023-03-10T15:48:26.754Z,7.78
2023-03-10T15:50:53.512Z,7.85
2023-03-10T15:53:19.849Z,6.03
2023-03-10T15:55:46.308Z,7.38
2023-03-10T15:58:17.319Z,10.43
2023-03-10T16:03:12.396Z,6.80
2023-03-10T16:05:44.948Z,5.55
2023-03-10T16:08:11.348Z,11.43
2023-03-10T16:10:37.638Z,8.32
2023-03-10T16:13:04.110Z,8.82
2023-03-10T16:15:30.399Z,9.18
2023-03-10T16:17:58.291Z,7.57
2023-03-10T16:20:24.831Z,7.55
2023-03-10T16:22:55.796Z,5.55
2023-03-10T16:27:52.600Z,5.43
2023-03-10T16:30:22.501Z,3.25
2023-03-10T16:32:52.066Z,4.40
2023-03-10T16:35:20.710Z,2.67
2023-03-10T16:37:47.040Z,5.72
2023-03-10T16:40:18.143Z,2.67
2023-03-10T16:42:46.583Z,1.63
2023-03-10T16:45:14.255Z,0.63
2023-03-10T16:47:40.791Z,1.85
2023-03-10T16:50:07.505Z,2.05
2023-03-10T16:52:41.238Z,1.13
2023-03-10T16:55:15.431Z,1.00
2023-03-10T16:57:41.801Z,0.57
2023-03-10T17:00:13.997Z,2.13
2023-03-10T17:02:40.310Z,1.33
2023-03-10T17:05:06.775Z,1.23
2023-03-10T17:07:34.804Z,1.55
2023-03-10T17:10:02.927Z,1.30
2023-03-10T17:12:29.292Z,1.67
2023-03-10T17:14:57.049Z,2.78
2023-03-10T17:17:24.098Z,1.13
2023-03-10T17:19:51.264Z,1.88
2023-03-10T17:22:27.854Z,1.30
2023-03-10T17:24:58.415Z,2.35
2023-03-10T17:27:25.291Z,2.35
2023-03-10T17:29:51.636Z,1.88
2023-03-10T17:32:21.741Z,1.17
2023-03-10T17:34:48.161Z,1.52
2023-03-10T17:37:21.827Z,0.75
2023-03-10T17:39:49.878Z,0.73
2023-03-10T17:42:16.262Z,1.23
2023-03-10T17:44:45.278Z,5.78
2023-03-10T17:47:11.640Z,1.27
2023-03-10T17:49:38.259Z,1.10
2023-03-10T17:52:20.929Z,1.30
2023-03-10T17:54:47.465Z,2.20
2023-03-10T17:57:13.843Z,1.45
2023-03-10T17:59:40.448Z,2.03
2023-03-10T18:02:07.125Z,0.90
2023-03-10T18:04:35.877Z,1.65
2023-03-10T18:07:02.319Z,1.20
2023-03-10T18:09:28.897Z,0.90
2023-03-10T18:11:56.546Z,1.80
2023-03-10T18:14:27.314Z,1.27
2023-03-10T18:16:58.703Z,1.23
2023-03-10T18:19:35.145Z,2.90
2023-03-10T18:22:05.364Z,1.75
2023-03-10T18:24:34.244Z,1.27
2023-03-10T18:27:00.668Z,1.88
2023-03-10T18:29:27.094Z,1.60
2023-03-10T18:31:53.584Z,2.63
2023-03-10T18:34:19.972Z,2.15
2023-03-10T18:36:47.012Z,1.80
2023-03-10T18:39:13.494Z,4.60
2023-03-10T18:41:39.967Z,2.97
2023-03-10T18:44:06.475Z,1.83
2023-03-10T18:46:35.389Z,3.35
2023-03-10T18:49:01.780Z,1.65
2023-03-10T18:51:29.089Z,3.80
2023-03-10T18:53:56.632Z,2.45
2023-03-10T18:56:26.310Z,2.58
2023-03-10T18:58:52.784Z,2.60
2023-03-10T19:01:22.380Z,2.30
2023-03-10T19:03:51.875Z,1.83
2023-03-10T19:06:18.521Z,3.50
2023-03-10T19:08:47.438Z,2.05
2023-03-10T19:11:14.334Z,5.03
2023-03-10T19:13:40.883Z,4.28
2023-03-10T19:16:08.962Z,5.60
2023-03-10T19:18:35.491Z,2.13
2023-03-10T19:21:02.338Z,4.32
2023-03-10T19:23:29.456Z,4.63
2023-03-10T19:25:56.286Z,4.55
2023-03-10T19:28:22.838Z,3.45
2023-03-10T19:30:49.378Z,4.07
2023-03-10T19:33:19.147Z,6.65
2023-03-10T19:35:48.425Z,4.05
2023-03-10T19:38:14.850Z,2.08
2023-03-10T19:40:51.148Z,4.50
2023-03-10T19:43:20.659Z,6.13
2023-03-10T19:45:47.061Z,5.63
2023-03-10T19:48:13.799Z,2.60
2023-03-10T19:50:40.166Z,1.17
2023-03-10T19:53:06.633Z,2.25
2023-03-10T19:55:35.301Z,4.50
2023-03-10T19:58:06.215Z,3.45
2023-03-10T20:00:32.967Z,2.95
2023-03-10T20:03:04.522Z,3.38
2023-03-10T20:05:30.952Z,4.40
2023-03-10T20:07:57.474Z,5.00
2023-03-10T20:10:26.310Z,4.90
2023-03-10T20:12:52.651Z,2.60
2023-03-10T20:15:19.154Z,5.35
2023-03-10T20:17:47.911Z,3.90
2023-03-10T20:20:14.966Z,3.08
2023-03-10T20:22:44.394Z,2.05
2023-03-10T20:25:12.980Z,9.27
2023-03-10T20:27:41.949Z,4.72
2023-03-10T20:30:20.205Z,5.03
2023-03-10T20:32:46.568Z,5.07
2023-03-10T20:35:14.841Z,4.13
2023-03-10T20:37:46.541Z,2.10
2023-03-10T20:40:20.654Z,2.38
2023-03-10T20:42:47.031Z,5.50
2023-03-10T20:45:13.495Z,4.40
2023-03-10T20:47:40.448Z,5.15
2023-03-10T20:50:13.214Z,5.35
2023-03-10T20:52:41.820Z,5.03
2023-03-10T20:55:14.051Z,5.65
2023-03-10T20:57:43.588Z,3.13
2023-03-10T21:00:10.655Z,1.90
2023-03-10T21:02:37.203Z,4.00
2023-03-10T21:05:03.770Z,7.15
2023-03-10T21:07:31.333Z,7.53
2023-03-10T21:10:02.492Z,7.88
2023-03-10T21:12:28.874Z,2.33
2023-03-10T21:14:55.196Z,6.97
2023-03-10T21:17:22.450Z,4.63
2023-03-10T21:19:48.910Z,4.45
2023-03-10T21:22:15.449Z,5.65
2023-03-10T21:24:41.875Z,7.95
2023-03-10T21:27:08.211Z,4.38
2023-03-10T21:29:37.263Z,7.90
2023-03-10T21:32:03.779Z,3.78
2023-03-10T21:34:31.283Z,3.22
2023-03-10T21:36:58.384Z,4.35
2023-03-10T21:39:24.790Z,1.95
2023-03-10T21:41:51.459Z,4.88
2023-03-10T21:44:17.763Z,2.28
2023-03-10T21:46:44.092Z,6.70
2023-03-10T21:49:10.384Z,2.58
2023-03-10T21:51:42.667Z,6.00
2023-03-10T21:54:11.025Z,3.25
2023-03-10T21:56:39.960Z,7.03
2023-03-10T21:59:06.334Z,2.72
2023-03-10T22:01:33.172Z,1.40
2023-03-10T22:04:01.942Z,5.30
2023-03-10T22:06:28.246Z,4.38
2023-03-10T22:08:56.998Z,3.28
2023-03-10T22:11:26.132Z,3.33
2023-03-10T22:13:53.477Z,3.15
2023-03-10T22:16:19.859Z,2.65
2023-03-10T22:18:47.553Z,3.97
2023-03-10T22:21:17.946Z,3.30
2023-03-10T22:23:44.273Z,6.20
2023-03-10T22:26:11.762Z,4.05
2023-03-10T22:28:38.265Z,2.15
2023-03-10T22:31:08.923Z,5.30
2023-03-10T22:33:35.812Z,4.88
2023-03-10T22:36:07.631Z,2.75
2023-03-10T22:38:34.339Z,2.47
2023-03-10T22:41:12.432Z,5.88
2023-03-10T22:43:43.704Z,7.82
2023-03-10T22:46:13.589Z,4.10
2023-03-10T22:48:40.768Z,2.25
2023-03-10T22:51:09.597Z,5.05
2023-03-10T22:53:37.984Z,4.00
2023-03-10T22:56:08.349Z,8.63
2023-03-10T22:58:38.413Z,3.63
2023-03-10T23:01:06.810Z,2.60
2023-03-10T23:03:34.326Z,5.03
2023-03-10T23:06:05.423Z,14.68
2023-03-10T23:08:31.736Z,3.90
2023-03-10T23:10:58.084Z,6.22
2023-03-10T23:13:30.046Z,5.78
2023-03-10T23:15:59.123Z,3.05
2023-03-10T23:18:25.501Z,3.63
2023-03-10T23:20:56.717Z,5.90
2023-03-10T23:23:23.091Z,4.18
2023-03-10T23:25:50.168Z,1.98
2023-03-10T23:28:20.483Z,5.75
2023-03-10T23:30:52.035Z,4.32
2023-03-10T23:33:23.543Z,2.92
2023-03-10T23:35:50.233Z,2.55
2023-03-10T23:38:19.165Z,3.80
2023-03-10T23:40:48.372Z,1.98
2023-03-10T23:43:17.621Z,4.40
2023-03-10T23:45:44.580Z,1.73
2023-03-10T23:48:17.395Z,2.25
2023-03-10T23:50:45.657Z,5.03
2023-03-10T23:53:13.042Z,2.72
2023-03-10T23:55:43.082Z,3.75
2023-03-10T23:58:10.176Z,3.50
